Time;durP1;ratioP1;P1;durP2;ratioP2;P2;SDS_P1;SDS_P2;PMS_P1;PMS_P2;Temp;Humidity;BMP_temperature;BMP_pressure;BME280_temperature;BME280_humidity;BME280_pressure;Samples;Min_cycle;Max_cycle;Signal;HPM_P1;HPM_P2
2022/11/19 00:00:17;;;;;;;9.77;4.50;;;2.00;79.30;;;;;;5090429;28;20047;-69
2022/11/19 00:02:45;;;;;;;8.57;4.22;;;2.00;79.40;;;;;;5091912;28;20052;-70
2022/11/19 00:05:12;;;;;;;9.53;4.33;;;2.00;79.50;;;;;;5092093;28;20052;-69
2022/11/19 00:07:39;;;;;;;10.23;4.30;;;2.00;79.20;;;;;;5090785;28;20745;-69
2022/11/19 00:10:06;;;;;;;8.95;3.50;;;1.90;79.00;;;;;;5090203;28;20053;-69
2022/11/19 00:15:18;;;;;;;11.02;4.70;;;1.90;78.60;;;;;;5087531;28;20059;-69
2022/11/19 00:17:47;;;;;;;9.90;4.20;;;1.90;78.90;;;;;;5090471;28;20476;-69
2022/11/19 00:20:14;;;;;;;10.07;4.13;;;1.90;78.90;;;;;;5091780;28;20305;-69
2022/11/19 00:22:41;;;;;;;9.52;4.20;;;1.90;78.60;;;;;;5090491;28;20099;-69
2022/11/19 00:25:09;;;;;;;8.68;3.92;;;1.90;78.50;;;;;;5091474;28;20048;-69
2022/11/19 00:27:36;;;;;;;8.80;4.10;;;1.90;78.60;;;;;;5090911;28;20074;-69
2022/11/19 00:30:04;;;;;;;8.13;3.77;;;1.90;79.00;;;;;;5124001;27;20049;-69
2022/11/19 00:32:31;;;;;;;10.13;3.88;;;1.90;78.70;;;;;;5089264;28;20251;-69
2022/11/19 00:35:00;;;;;;;8.60;4.03;;;1.90;78.40;;;;;;5090348;28;20233;-69
2022/11/19 00:37:27;;;;;;;7.75;3.88;;;1.90;78.30;;;;;;5090321;28;20151;-69
2022/11/19 00:39:54;;;;;;;8.95;3.70;;;1.90;78.70;;;;;;5090838;28;20054;-69
2022/11/19 00:42:21;;;;;;;10.27;3.90;;;1.90;78.80;;;;;;5120708;27;20131;-69
2022/11/19 00:44:48;;;;;;;7.47;3.50;;;2.00;78.90;;;;;;5071292;28;20259;-69
2022/11/19 00:47:15;;;;;;;6.78;3.28;;;2.00;77.80;;;;;;5072426;28;20041;-69
2022/11/19 00:49:43;;;;;;;7.20;3.40;;;2.00;77.40;;;;;;5071004;28;20063;-69
2022/11/19 00:52:11;;;;;;;7.32;3.38;;;2.00;77.90;;;;;;5091605;28;20052;-69
2022/11/19 00:54:38;;;;;;;7.43;3.23;;;2.00;77.60;;;;;;5089921;28;20131;-69
2022/11/19 00:57:05;;;;;;;6.93;2.90;;;2.00;77.50;;;;;;5090956;28;20733;-69
2022/11/19 00:59:32;;;;;;;7.18;3.20;;;2.00;77.40;;;;;;5090825;28;20049;-69
2022/11/19 01:01:59;;;;;;;7.90;2.95;;;2.00;76.80;;;;;;5091409;28;20508;-70
2022/11/19 01:04:27;;;;;;;7.18;3.08;;;2.00;77.00;;;;;;5089684;28;20059;-69
2022/11/19 01:06:54;;;;;;;6.47;2.60;;;2.00;77.10;;;;;;5089486;28;20156;-69
2022/11/19 01:09:23;;;;;;;5.80;2.63;;;2.00;76.60;;;;;;5090976;28;20320;-69
2022/11/19 01:11:50;;;;;;;6.30;2.42;;;1.90;76.00;;;;;;5089593;28;20049;-69
2022/11/19 01:14:17;;;;;;;5.63;1.92;;;1.90;76.20;;;;;;5091029;28;20056;-69
2022/11/19 01:16:44;;;;;;;6.38;2.30;;;1.90;76.10;;;;;;5089264;28;20616;-69
2022/11/19 01:19:15;;;;;;;6.03;2.50;;;1.90;76.20;;;;;;5089572;28;20522;-69
2022/11/19 01:21:42;;;;;;;7.07;2.55;;;1.90;75.80;;;;;;5090665;28;20334;-69
2022/11/19 01:24:09;;;;;;;6.40;2.50;;;1.80;75.20;;;;;;5089415;28;20102;-69
2022/11/19 01:26:37;;;;;;;6.28;2.30;;;1.80;75.50;;;;;;5089017;28;20103;-69
2022/11/19 01:29:04;;;;;;;5.82;2.20;;;1.80;75.60;;;;;;5090454;28;20656;-69
2022/11/19 01:31:31;;;;;;;5.30;2.30;;;1.80;75.20;;;;;;5089137;28;20063;-69
2022/11/19 01:33:59;;;;;;;5.03;2.00;;;1.80;75.50;;;;;;5089518;28;20892;-69
2022/11/19 01:36:28;;;;;;;5.47;2.35;;;1.80;75.30;;;;;;5069298;28;20052;-69
2022/11/19 01:38:55;;;;;;;6.88;2.83;;;1.80;74.80;;;;;;5088876;28;20047;-69
2022/11/19 01:41:25;;;;;;;6.13;2.05;;;1.70;75.00;;;;;;5087924;28;20136;-69
2022/11/19 01:43:57;;;;;;;6.30;2.27;;;1.70;75.30;;;;;;5089634;28;20048;-69
2022/11/19 01:46:27;;;;;;;4.97;2.28;;;1.70;75.40;;;;;;5089012;28;20341;-69
2022/11/19 01:48:58;;;;;;;6.63;2.78;;;1.70;74.90;;;;;;5090173;28;20123;-69
2022/11/19 01:51:28;;;;;;;6.55;2.30;;;1.70;74.70;;;;;;5090175;28;20052;-69
2022/11/19 01:54:00;;;;;;;5.43;2.03;;;1.70;75.00;;;;;;5090704;28;20053;-69
2022/11/19 01:56:28;;;;;;;6.90;2.40;;;1.60;74.70;;;;;;5090199;28;20044;-69
2022/11/19 01:59:00;;;;;;;5.63;2.30;;;1.60;74.50;;;;;;5087053;28;20341;-69
2022/11/19 02:01:28;;;;;;;7.10;2.67;;;1.60;74.40;;;;;;5090082;28;20048;-69
2022/11/19 02:03:59;;;;;;;6.00;2.28;;;1.60;74.70;;;;;;5090502;28;20076;-69
2022/11/19 02:06:27;;;;;;;5.70;2.72;;;1.60;74.50;;;;;;5088564;28;20087;-69
2022/11/19 02:08:54;;;;;;;6.10;2.20;;;1.60;74.70;;;;;;5090160;28;20059;-69
2022/11/19 02:12:03;;;;;;;5.80;2.58;;;1.50;74.10;;;;;;5088848;28;20271;-69
2022/11/19 02:14:50;;;;;;;6.93;2.67;;;1.50;74.10;;;;;;5089561;28;20056;-69
2022/11/19 02:17:31;;;;;;;6.20;2.08;;;1.50;74.40;;;;;;5068793;28;20993;-69
2022/11/19 02:20:32;;;;;;;6.55;2.40;;;1.40;73.70;;;;;;5072382;28;20059;-69
2022/11/19 02:23:24;;;;;;;7.70;2.80;;;1.40;74.10;;;;;;5089225;28;20053;-69
2022/11/19 02:26:35;;;;;;;5.53;2.40;;;1.40;74.00;;;;;;5088094;28;20293;-69
2022/11/19 02:29:11;;;;;;;5.53;2.40;;;1.40;74.50;;;;;;5073701;28;20140;-69
2022/11/19 02:31:48;;;;;;;5.85;2.80;;;1.40;74.50;;;;;;5086917;28;20049;-69
2022/11/19 02:34:21;;;;;;;6.70;2.53;;;1.40;73.90;;;;;;5090155;28;20052;-69
2022/11/19 02:36:57;;;;;;;6.27;2.20;;;1.40;73.80;;;;;;5088392;28;20045;-69
2022/11/19 02:39:29;;;;;;;6.57;2.15;;;1.30;73.60;;;;;;5088043;28;20310;-69
2022/11/19 02:42:04;;;;;;;5.13;2.22;;;1.30;74.50;;;;;;5088315;28;20044;-69
2022/11/19 02:47:27;;;;;;;5.57;2.05;;;1.30;75.00;;;;;;5071111;28;20087;-69
2022/11/19 02:49:59;;;;;;;5.57;2.43;;;1.40;75.10;;;;;;5087576;28;20076;-69
2022/11/19 02:52:27;;;;;;;5.97;2.42;;;1.40;74.70;;;;;;5093217;28;20287;-69
2022/11/19 02:54:54;;;;;;;6.50;2.47;;;1.40;74.30;;;;;;5091862;28;20049;-69
2022/11/19 02:57:21;;;;;;;5.68;2.17;;;1.30;74.00;;;;;;5092102;28;20059;-69
2022/11/19 03:05:31;;;;;;;6.75;2.10;;;1.30;74.90;;;;;;5091656;28;20268;-69
2022/11/19 03:07:58;;;;;;;6.50;2.80;;;1.30;73.60;;;;;;5089947;28;20149;-69
2022/11/19 03:10:32;;;;;;;6.20;2.55;;;1.20;73.60;;;;;;5091067;28;20544;-69
2022/11/19 03:16:40;;;;;;;5.78;2.35;;;1.20;74.00;;;;;;5091610;28;20448;-69
2022/11/19 03:18:50;;;;;;;5.75;2.22;;;1.20;73.80;;;;;;5124783;27;20279;-69
2022/11/19 03:21:24;;;;;;;6.55;2.08;;;1.20;73.30;;;;;;5090402;28;20044;-69
2022/11/19 03:23:55;;;;;;;5.68;2.20;;;1.20;73.00;;;;;;5091033;28;20147;-69
2022/11/19 03:26:28;;;;;;;5.97;2.40;;;1.10;72.40;;;;;;5091249;28;20528;-69
2022/11/19 03:28:57;;;;;;;5.10;2.50;;;1.10;73.20;;;;;;5091077;28;20096;-69
2022/11/19 03:31:26;;;;;;;6.78;2.33;;;1.10;73.00;;;;;;5090387;28;20252;-69
2022/11/19 03:33:57;;;;;;;5.50;2.15;;;1.00;72.90;;;;;;5091282;28;20044;-69
2022/11/19 03:36:30;;;;;;;5.90;1.83;;;1.00;73.00;;;;;;5092780;28;20129;-69
2022/11/19 03:39:02;;;;;;;6.20;2.17;;;1.00;73.10;;;;;;5092473;28;20056;-69
2022/11/19 03:41:30;;;;;;;6.17;2.93;;;1.00;73.10;;;;;;5089186;28;20049;-69
2022/11/19 03:44:02;;;;;;;5.28;1.95;;;1.00;72.70;;;;;;5091311;28;20756;-69
2022/11/19 03:46:32;;;;;;;6.05;2.10;;;1.00;72.80;;;;;;5092224;28;20052;-69
2022/11/19 03:49:03;;;;;;;5.85;2.35;;;1.00;73.60;;;;;;5091324;28;20429;-69
2022/11/19 03:51:37;;;;;;;5.47;2.20;;;1.00;73.40;;;;;;5092315;28;20055;-69
2022/11/19 03:54:05;;;;;;;5.83;1.93;;;1.00;73.40;;;;;;5090845;28;20044;-69
2022/11/19 03:56:36;;;;;;;6.35;2.60;;;1.00;72.90;;;;;;5092724;28;20258;-69
2022/11/19 03:59:04;;;;;;;9.32;2.20;;;1.00;73.40;;;;;;5089628;28;20258;-69
2022/11/19 04:01:32;;;;;;;5.80;2.00;;;0.90;72.60;;;;;;5090743;28;20056;-69
2022/11/19 04:06:45;;;;;;;6.03;2.53;;;0.90;72.60;;;;;;5091946;28;20110;-69
2022/11/19 04:09:12;;;;;;;5.85;2.30;;;0.90;72.40;;;;;;5073475;28;20844;-69
2022/11/19 04:11:39;;;;;;;5.15;2.15;;;0.80;72.80;;;;;;5114863;27;20103;-69
2022/11/19 04:14:06;;;;;;;5.85;2.42;;;0.80;72.90;;;;;;5070103;28;20132;-69
2022/11/19 04:16:33;;;;;;;5.47;2.10;;;0.80;73.20;;;;;;5089254;28;20052;-69
2022/11/19 04:19:02;;;;;;;6.17;2.80;;;0.80;73.50;;;;;;5091546;28;20135;-69
2022/11/19 04:21:29;;;;;;;5.38;2.10;;;0.80;73.20;;;;;;5091623;28;20275;-69
2022/11/19 04:23:56;;;;;;;6.60;2.30;;;0.80;73.10;;;;;;5091697;28;20049;-69
2022/11/19 04:26:23;;;;;;;5.15;2.15;;;0.80;72.30;;;;;;5091597;28;20554;-68
2022/11/19 04:28:50;;;;;;;5.93;2.25;;;0.80;72.70;;;;;;5090162;28;20050;-69
2022/11/19 04:31:17;;;;;;;7.23;2.30;;;0.80;72.30;;;;;;5089472;28;20059;-69
2022/11/19 04:33:44;;;;;;;5.53;2.42;;;0.80;72.30;;;;;;5088986;28;20989;-69
2022/11/19 04:36:12;;;;;;;6.82;2.30;;;0.80;72.60;;;;;;5090253;28;20049;-69
2022/11/19 04:38:39;;;;;;;6.25;2.30;;;0.80;72.60;;;;;;5091555;28;20045;-69
2022/11/19 04:41:06;;;;;;;6.65;2.25;;;0.80;72.80;;;;;;5091460;28;20081;-69
2022/11/19 04:43:33;;;;;;;6.90;2.37;;;0.80;72.10;;;;;;5090438;28;20051;-69
2022/11/19 04:46:00;;;;;;;5.30;2.35;;;0.80;72.50;;;;;;5089979;28;20641;-69
2022/11/19 04:48:27;;;;;;;6.05;2.00;;;0.80;72.80;;;;;;5073199;28;20134;-69
2022/11/19 04:50:55;;;;;;;6.00;2.22;;;0.70;72.30;;;;;;5088113;28;20049;-69
2022/11/19 04:53:23;;;;;;;5.60;2.00;;;0.70;72.20;;;;;;5091002;28;20041;-69
2022/11/19 04:55:50;;;;;;;6.73;2.50;;;0.60;72.00;;;;;;5091351;28;20594;-69
2022/11/19 04:58:17;;;;;;;6.40;2.42;;;0.60;71.90;;;;;;5089637;28;20282;-69
2022/11/19 05:00:44;;;;;;;6.82;2.20;;;0.60;72.10;;;;;;5089426;28;20053;-69
2022/11/19 05:03:11;;;;;;;5.80;2.05;;;0.60;71.60;;;;;;5090176;28;20052;-69
2022/11/19 05:05:38;;;;;;;6.05;1.95;;;0.60;71.70;;;;;;5089160;28;20127;-69
2022/11/19 05:08:06;;;;;;;6.57;2.40;;;0.60;71.60;;;;;;5089398;28;20044;-69
2022/11/19 05:10:34;;;;;;;6.22;2.17;;;0.50;71.70;;;;;;5089303;28;20246;-69
2022/11/19 05:13:01;;;;;;;7.07;2.38;;;0.50;72.20;;;;;;5090551;28;20056;-69
2022/11/19 05:15:28;;;;;;;6.55;2.42;;;0.50;72.90;;;;;;5090677;28;20052;-69
2022/11/19 05:17:56;;;;;;;5.72;2.33;;;0.60;73.00;;;;;;5091227;28;20054;-69
2022/11/19 05:20:23;;;;;;;5.80;1.80;;;0.60;73.50;;;;;;5075235;28;20511;-69
2022/11/19 05:22:50;;;;;;;6.07;2.22;;;0.60;73.20;;;;;;5071064;28;20283;-69
2022/11/19 05:25:17;;;;;;;6.30;2.35;;;0.60;73.70;;;;;;5089719;28;20048;-69
2022/11/19 05:27:45;;;;;;;6.35;2.65;;;0.70;73.80;;;;;;5090980;28;20139;-69
2022/11/19 05:30:13;;;;;;;6.15;2.33;;;0.70;73.90;;;;;;5089170;28;20057;-69
2022/11/19 05:32:40;;;;;;;6.07;2.53;;;0.80;73.60;;;;;;5089346;28;20074;-69
2022/11/19 05:35:08;;;;;;;5.18;1.83;;;0.80;73.40;;;;;;5090777;28;20282;-69
2022/11/19 05:37:35;;;;;;;5.82;2.17;;;0.80;71.90;;;;;;5090780;28;20094;-69
2022/11/19 05:40:03;;;;;;;5.57;2.38;;;0.70;71.90;;;;;;5087830;28;20056;-69
2022/11/19 05:42:30;;;;;;;4.70;1.52;;;0.70;72.20;;;;;;5089374;28;20417;-69
2022/11/19 05:44:58;;;;;;;5.80;2.37;;;0.60;72.10;;;;;;5089149;28;20044;-69
2022/11/19 05:47:25;;;;;;;6.72;2.40;;;0.60;72.20;;;;;;5090824;28;20251;-69
2022/11/19 05:49:52;;;;;;;7.13;2.95;;;0.60;72.20;;;;;;5088576;28;20521;-69
2022/11/19 05:52:19;;;;;;;7.57;3.38;;;0.60;72.30;;;;;;5090453;28;20055;-69
2022/11/19 05:54:46;;;;;;;5.57;2.30;;;0.60;72.40;;;;;;5090489;28;20056;-69
2022/11/19 05:57:13;;;;;;;7.40;2.90;;;0.60;71.60;;;;;;5088735;28;20114;-69
2022/11/19 05:59:41;;;;;;;6.32;2.83;;;0.60;71.80;;;;;;5088684;28;20650;-69
2022/11/19 06:02:09;;;;;;;6.30;2.60;;;0.60;72.00;;;;;;5089552;28;20052;-69
2022/11/19 06:04:36;;;;;;;6.50;2.60;;;0.60;72.40;;;;;;5089140;28;20048;-69
2022/11/19 06:07:04;;;;;;;7.40;2.92;;;0.60;72.20;;;;;;5089882;28;20470;-69
2022/11/19 06:09:31;;;;;;;6.87;2.77;;;0.50;71.80;;;;;;5089415;28;20052;-69
2022/11/19 06:11:58;;;;;;;8.85;3.60;;;0.50;71.90;;;;;;5088515;28;20772;-69
2022/11/19 06:14:26;;;;;;;6.85;3.03;;;0.50;72.10;;;;;;5086682;28;20052;-69
2022/11/19 06:16:55;;;;;;;7.40;3.30;;;0.50;72.30;;;;;;5097142;28;20128;-69
2022/11/19 06:19:24;;;;;;;7.78;3.20;;;0.50;72.30;;;;;;5120652;27;21042;-69
2022/11/19 06:21:51;;;;;;;8.50;3.67;;;0.50;72.50;;;;;;5089072;28;20048;-69
2022/11/19 06:24:19;;;;;;;8.68;3.67;;;0.60;72.70;;;;;;5087205;28;20271;-69
2022/11/19 06:26:47;;;;;;;7.32;3.47;;;0.60;72.00;;;;;;5091297;28;20048;-69
2022/11/19 06:29:15;;;;;;;8.68;3.60;;;0.50;71.30;;;;;;5090970;28;20611;-69
2022/11/19 06:31:42;;;;;;;8.10;3.72;;;0.50;71.20;;;;;;5088016;28;20049;-72
2022/11/19 06:34:10;;;;;;;7.77;3.73;;;0.40;71.40;;;;;;5091685;28;20057;-71
2022/11/19 06:36:39;;;;;;;7.47;3.28;;;0.40;71.50;;;;;;5089007;28;20287;-68
2022/11/19 06:39:06;;;;;;;7.45;3.17;;;0.40;71.80;;;;;;5088285;28;20055;-68
2022/11/19 06:41:33;;;;;;;9.55;3.90;;;0.40;71.50;;;;;;5088688;28;20068;-69
2022/11/19 06:44:01;;;;;;;8.88;3.22;;;0.40;71.30;;;;;;5123762;27;20052;-70
2022/11/19 06:46:28;;;;;;;10.60;5.37;;;0.30;71.20;;;;;;5082338;28;20051;-69
2022/11/19 06:48:55;;;;;;;11.18;3.95;;;0.30;71.50;;;;;;5089230;28;20256;-68
2022/11/19 06:51:22;;;;;;;9.30;3.78;;;0.20;71.90;;;;;;5086762;28;20047;-69
2022/11/19 06:53:51;;;;;;;8.63;4.22;;;0.30;71.80;;;;;;5088739;28;20502;-67
2022/11/19 06:56:18;;;;;;;8.65;4.10;;;0.20;72.40;;;;;;5125475;27;20047;-67
2022/11/19 06:58:45;;;;;;;8.90;3.90;;;0.20;71.50;;;;;;5092211;28;20488;-69
2022/11/19 07:01:13;;;;;;;8.65;3.90;;;0.20;72.70;;;;;;5088199;28;20279;-69
2022/11/19 07:03:40;;;;;;;8.95;3.95;;;0.20;72.30;;;;;;5085535;28;20056;-68
2022/11/19 07:06:07;;;;;;;8.82;4.38;;;0.20;73.00;;;;;;5088102;28;20044;-69
2022/11/19 07:08:36;;;;;;;8.63;4.18;;;0.30;73.20;;;;;;5092649;28;20442;-69
2022/11/19 07:11:24;;;;;;;9.43;4.20;;;0.30;72.70;;;;;;5091862;28;20044;-69
2022/11/19 07:13:58;;;;;;;8.43;3.67;;;0.30;71.40;;;;;;5119468;27;20458;-69
2022/11/19 07:16:27;;;;;;;9.27;4.47;;;0.30;72.70;;;;;;5084802;28;20048;-69
2022/11/19 07:18:56;;;;;;;9.20;4.13;;;0.30;73.00;;;;;;5085915;28;20106;-69
2022/11/19 07:21:23;;;;;;;9.70;4.28;;;0.30;73.50;;;;;;5087531;28;20865;-69
2022/11/19 07:23:50;;;;;;;8.43;3.47;;;0.30;72.20;;;;;;5086991;28;20048;-69
2022/11/19 07:26:18;;;;;;;9.60;4.47;;;0.30;72.50;;;;;;5089053;28;20277;-69
2022/11/19 07:28:45;;;;;;;9.48;4.13;;;0.30;71.80;;;;;;5087679;28;20497;-69
2022/11/19 07:31:12;;;;;;;10.27;4.28;;;0.30;71.30;;;;;;5100938;28;20044;-69
2022/11/19 07:33:40;;;;;;;9.85;4.35;;;0.20;71.90;;;;;;5099558;28;20063;-68
2022/11/19 07:36:08;;;;;;;9.73;4.40;;;0.20;72.20;;;;;;5104145;27;20044;-69
2022/11/19 07:38:36;;;;;;;9.35;3.95;;;0.30;72.90;;;;;;5100726;28;20252;-69
2022/11/19 07:42:47;;;;;;;9.65;4.50;;;0.30;72.40;;;;;;5091850;28;20045;-69
2022/11/19 07:43:52;;;;;;;8.98;4.38;;;0.20;71.90;;;;;;5088730;28;20502;-68
2022/11/19 07:46:20;;;;;;;9.02;4.60;;;0.20;71.40;;;;;;5085688;28;20060;-69
2022/11/19 07:48:47;;;;;;;9.73;3.67;;;0.20;71.90;;;;;;5087413;28;20048;-69
2022/11/19 07:51:14;;;;;;;9.82;4.40;;;0.20;71.70;;;;;;5086161;28;20291;-69
2022/11/19 07:53:41;;;;;;;10.35;4.50;;;0.20;73.20;;;;;;5122145;27;20058;-69
2022/11/19 07:56:09;;;;;;;9.30;4.63;;;0.20;72.70;;;;;;5120235;27;20486;-69
2022/11/19 07:58:36;;;;;;;9.68;4.40;;;0.30;73.00;;;;;;5087286;28;20049;-69
2022/11/19 08:01:09;;;;;;;9.07;4.13;;;0.30;72.30;;;;;;5087228;28;20151;-69
2022/11/19 08:03:37;;;;;;;7.18;3.13;;;0.30;72.40;;;;;;5093355;28;20286;-69
2022/11/19 08:06:04;;;;;;;9.20;3.88;;;0.30;72.60;;;;;;5089344;28;20491;-69
2022/11/19 08:08:32;;;;;;;9.23;4.57;;;0.30;71.70;;;;;;5095299;28;20048;-68
2022/11/19 08:11:03;;;;;;;9.60;4.20;;;0.30;73.40;;;;;;5081894;28;20054;-68
2022/11/19 08:13:30;;;;;;;9.67;3.87;;;0.40;73.00;;;;;;5101526;28;20486;-68
2022/11/19 08:16:00;;;;;;;8.15;3.72;;;0.40;72.20;;;;;;5098214;28;20763;-69
2022/11/19 08:18:28;;;;;;;8.43;4.22;;;0.40;72.10;;;;;;5098359;28;20060;-69
2022/11/19 08:20:55;;;;;;;10.02;4.78;;;0.40;72.20;;;;;;5099495;28;20571;-69
2022/11/19 08:23:23;;;;;;;8.73;4.60;;;0.40;71.70;;;;;;5101242;27;20067;-69
2022/11/19 08:25:51;;;;;;;9.33;4.47;;;0.30;71.90;;;;;;5097784;28;20048;-69
2022/11/19 08:28:19;;;;;;;9.90;4.25;;;0.30;71.60;;;;;;5097880;28;20359;-69
2022/11/19 08:30:46;;;;;;;9.52;4.25;;;0.30;71.50;;;;;;5099905;28;20047;-69
2022/11/19 08:33:13;;;;;;;9.05;4.35;;;0.30;71.60;;;;;;5092143;28;20132;-69
2022/11/19 08:35:41;;;;;;;9.30;4.55;;;0.30;71.40;;;;;;5123077;27;20045;-69
2022/11/19 08:38:09;;;;;;;10.20;4.83;;;0.30;71.40;;;;;;5089611;28;20056;-71
2022/11/19 08:40:36;;;;;;;9.55;4.40;;;0.30;71.30;;;;;;5090583;28;20275;-68
2022/11/19 08:43:02;;;;;;;9.63;4.32;;;0.20;71.40;;;;;;5090502;28;20499;-69
2022/11/19 08:45:31;;;;;;;7.97;3.97;;;0.20;71.60;;;;;;5088064;28;20045;-68
2022/11/19 08:48:00;;;;;;;9.65;3.97;;;0.20;71.70;;;;;;5087145;28;20802;-68
2022/11/19 08:50:28;;;;;;;9.53;3.97;;;0.20;71.30;;;;;;5087720;28;20049;-69
2022/11/19 08:53:01;;;;;;;10.68;5.15;;;0.20;71.50;;;;;;5088195;28;20362;-70
2022/11/19 08:55:30;;;;;;;9.57;4.20;;;0.20;71.80;;;;;;5089631;28;20049;-67
2022/11/19 08:58:01;;;;;;;9.02;4.22;;;0.20;71.80;;;;;;5088595;28;20485;-68
2022/11/19 09:00:29;;;;;;;7.68;3.63;;;0.20;72.00;;;;;;5091619;28;20048;-69
2022/11/19 09:02:56;;;;;;;9.53;4.83;;;0.30;72.00;;;;;;5088711;28;20052;-68
2022/11/19 09:05:23;;;;;;;10.65;4.53;;;0.30;72.10;;;;;;5089167;28;20345;-68
2022/11/19 09:07:50;;;;;;;11.07;4.93;;;0.30;72.10;;;;;;5095824;28;20124;-68
2022/11/19 09:10:19;;;;;;;9.15;4.30;;;0.30;72.20;;;;;;5068804;28;20055;-69
2022/11/19 09:12:46;;;;;;;10.32;4.10;;;0.40;72.30;;;;;;5086796;28;20139;-69
2022/11/19 09:15:13;;;;;;;11.30;4.70;;;0.40;72.00;;;;;;5090274;28;20046;-69
2022/11/19 09:17:40;;;;;;;10.07;4.32;;;0.40;72.10;;;;;;5070918;28;20252;-69
2022/11/19 09:20:08;;;;;;;9.40;3.95;;;0.50;72.20;;;;;;5088633;28;20048;-69
2022/11/19 09:22:36;;;;;;;10.15;4.20;;;0.50;72.30;;;;;;5088158;28;20056;-68
2022/11/19 09:25:04;;;;;;;11.02;4.32;;;0.50;72.50;;;;;;5091892;28;20055;-68
2022/11/19 09:27:32;;;;;;;11.00;4.37;;;0.60;72.30;;;;;;5118502;27;20056;-69
2022/11/19 09:29:59;;;;;;;10.50;4.45;;;0.60;72.20;;;;;;5089556;28;20267;-68
2022/11/19 09:32:27;;;;;;;8.55;4.15;;;0.60;72.10;;;;;;5088670;28;20056;-68
2022/11/19 09:34:54;;;;;;;8.43;3.83;;;0.70;72.20;;;;;;5090345;28;20040;-68
2022/11/19 09:37:22;;;;;;;9.63;3.95;;;0.80;72.20;;;;;;5122225;27;20441;-68
2022/11/19 09:39:49;;;;;;;10.57;4.40;;;0.80;72.10;;;;;;5099951;28;20106;-69
2022/11/19 09:42:21;;;;;;;9.63;3.78;;;0.80;72.00;;;;;;5093690;28;20246;-68
2022/11/19 09:45:10;;;;;;;10.15;3.80;;;0.80;72.20;;;;;;5096957;28;20044;-68
2022/11/19 09:47:54;;;;;;;8.68;4.35;;;1.00;71.90;;;;;;5097254;28;20140;-68
2022/11/19 09:50:24;;;;;;;8.30;3.22;;;1.00;71.80;;;;;;5106714;27;21003;-68
2022/11/19 09:52:57;;;;;;;8.77;3.70;;;1.10;71.40;;;;;;5070166;28;20068;-68
2022/11/19 09:55:29;;;;;;;8.60;3.90;;;1.10;71.10;;;;;;5108614;27;20314;-69
2022/11/19 09:57:59;;;;;;;9.85;4.47;;;1.10;71.20;;;;;;5110484;27;20055;-69
2022/11/19 10:00:29;;;;;;;9.00;3.92;;;1.20;71.60;;;;;;5090875;28;20139;-68
2022/11/19 10:02:57;;;;;;;10.02;4.15;;;1.30;71.80;;;;;;5089859;28;20057;-68
2022/11/19 10:05:32;;;;;;;8.97;3.90;;;1.40;71.20;;;;;;5089291;28;20048;-68
2022/11/19 10:08:12;;;;;;;9.30;4.40;;;1.40;71.20;;;;;;5093289;28;20342;-68
2022/11/19 10:10:42;;;;;;;8.77;3.75;;;1.50;71.00;;;;;;5091358;28;20072;-69
2022/11/19 10:13:31;;;;;;;8.13;3.88;;;1.50;70.40;;;;;;5091113;28;20072;-69
2022/11/19 10:16:14;;;;;;;8.52;3.58;;;1.60;70.60;;;;;;5097783;28;20068;-68
2022/11/19 10:18:51;;;;;;;9.33;3.70;;;1.70;70.00;;;;;;5104749;28;20053;-69
2022/11/19 10:21:24;;;;;;;8.07;3.53;;;1.80;70.10;;;;;;5091430;28;20283;-69
2022/11/19 10:23:59;;;;;;;8.50;3.33;;;1.80;70.80;;;;;;5123969;27;20151;-69
2022/11/19 10:26:34;;;;;;;8.05;3.80;;;1.90;70.10;;;;;;5102200;28;20142;-69
2022/11/19 10:29:03;;;;;;;7.22;2.92;;;2.00;70.10;;;;;;5096382;28;20048;-69
2022/11/19 10:31:35;;;;;;;7.37;3.13;;;2.00;69.80;;;;;;5091342;28;20576;-69
2022/11/19 10:34:07;;;;;;;8.93;3.30;;;2.10;69.80;;;;;;5090854;28;20271;-69
2022/11/19 10:36:41;;;;;;;8.15;3.38;;;2.10;68.40;;;;;;5110056;28;20101;-69
2022/11/19 10:39:17;;;;;;;7.68;3.13;;;2.20;68.20;;;;;;5093895;28;20221;-69
2022/11/19 10:41:49;;;;;;;9.15;3.83;;;2.20;68.10;;;;;;5094086;28;20056;-69
2022/11/19 10:44:39;;;;;;;7.50;3.57;;;2.30;69.00;;;;;;5088918;28;20567;-69
2022/11/19 10:47:17;;;;;;;51.10;8.07;;;2.30;69.00;;;;;;5088306;28;20248;-69
2022/11/19 10:49:45;;;;;;;67.97;9.60;;;2.40;69.20;;;;;;5122677;27;20140;-69
2022/11/19 10:52:22;;;;;;;118.25;14.90;;;2.50;69.30;;;;;;5088445;28;20064;-69
2022/11/19 10:54:52;;;;;;;78.22;9.75;;;2.50;69.10;;;;;;5090262;28;20049;-69
2022/11/19 10:57:21;;;;;;;98.73;12.23;;;2.60;68.90;;;;;;5089926;28;20541;-69
2022/11/19 10:59:50;;;;;;;8.65;3.50;;;2.70;68.90;;;;;;5091555;28;20271;-69
2022/11/19 11:02:24;;;;;;;7.45;3.30;;;2.80;68.80;;;;;;5088108;28;20793;-69
2022/11/19 11:05:07;;;;;;;6.65;3.28;;;2.80;68.50;;;;;;5089607;28;20054;-69
2022/11/19 11:07:46;;;;;;;50.45;7.95;;;2.90;68.40;;;;;;5089914;28;20931;-69
2022/11/19 11:10:29;;;;;;;32.27;5.90;;;3.00;67.80;;;;;;5088480;28;20083;-69
2022/11/19 11:15:49;;;;;;;67.32;8.98;;;3.10;67.50;;;;;;5071635;28;20047;-69
2022/11/19 11:18:19;;;;;;;13.25;3.75;;;3.10;67.40;;;;;;5090803;28;20161;-69
2022/11/19 11:20:48;;;;;;;8.07;3.03;;;3.10;67.20;;;;;;5090592;28;20049;-69
2022/11/19 11:23:17;;;;;;;6.77;3.10;;;3.20;67.10;;;;;;5090739;28;20048;-69
2022/11/19 11:25:54;;;;;;;7.18;3.30;;;3.30;67.20;;;;;;5089376;28;20267;-69
2022/11/19 11:28:24;;;;;;;7.80;3.33;;;3.30;67.20;;;;;;5089977;28;20063;-69
2022/11/19 11:30:56;;;;;;;8.75;3.28;;;3.40;67.00;;;;;;5100375;28;20072;-69
2022/11/19 11:33:30;;;;;;;7.38;3.38;;;3.50;67.30;;;;;;5086784;28;20045;-69
2022/11/19 11:36:01;;;;;;;6.87;3.07;;;3.50;67.00;;;;;;5122809;27;20060;-68
2022/11/19 11:38:29;;;;;;;7.03;2.97;;;3.60;67.50;;;;;;5086461;28;20314;-70
2022/11/19 11:41:01;;;;;;;6.30;2.95;;;3.60;68.00;;;;;;5123542;27;20497;-70
2022/11/19 11:43:29;;;;;;;6.80;2.90;;;3.70;67.60;;;;;;5092208;28;20052;-69
2022/11/19 11:45:58;;;;;;;6.88;3.08;;;3.80;67.50;;;;;;5089343;28;20059;-68
2022/11/19 11:48:30;;;;;;;7.00;3.00;;;3.90;66.00;;;;;;5089139;28;20140;-67
2022/11/19 11:50:57;;;;;;;6.13;2.90;;;3.90;66.10;;;;;;5089089;28;20880;-69
2022/11/19 11:53:31;;;;;;;6.95;3.13;;;4.00;66.60;;;;;;5090500;28;20053;-69
2022/11/19 11:55:59;;;;;;;8.13;2.80;;;4.10;66.80;;;;;;5089552;28;20056;-70
2022/11/19 11:58:29;;;;;;;7.40;3.17;;;4.10;66.90;;;;;;5088446;28;20045;-70
2022/11/19 12:01:11;;;;;;;62.73;8.93;;;4.20;66.80;;;;;;5090860;28;20049;-70
2022/11/19 12:03:52;;;;;;;121.50;15.18;;;4.20;65.60;;;;;;5042669;27;20330;-70
2022/11/19 12:06:22;;;;;;;125.47;14.38;;;4.30;66.30;;;;;;5103685;28;20072;-70
2022/11/19 12:08:56;;;;;;;48.17;8.27;;;4.40;66.60;;;;;;5090627;28;20060;-70
2022/11/19 12:11:52;;;;;;;14.05;3.95;;;4.40;66.40;;;;;;5091536;28;20055;-69
2022/11/19 12:14:22;;;;;;;114.63;14.47;;;4.50;66.10;;;;;;5091947;28;20048;-69
2022/11/19 12:17:12;;;;;;;8.45;3.47;;;4.50;66.30;;;;;;5084019;28;20350;-70
2022/11/19 12:19:55;;;;;;;6.35;3.38;;;4.60;64.40;;;;;;5098689;28;20159;-70
2022/11/19 12:22:33;;;;;;;45.05;7.45;;;4.70;66.30;;;;;;5090923;28;20136;-70
2022/11/19 12:25:20;;;;;;;12.60;3.90;;;4.70;65.20;;;;;;5088570;28;20160;-70
2022/11/19 12:28:01;;;;;;;38.70;6.57;;;4.80;65.70;;;;;;5089913;28;20048;-69
2022/11/19 12:30:36;;;;;;;15.32;3.72;;;4.90;65.80;;;;;;5089097;28;20378;-70
2022/11/19 12:33:22;;;;;;;22.58;4.97;;;4.90;65.60;;;;;;5071264;28;20163;-70
2022/11/19 12:36:03;;;;;;;10.77;3.65;;;5.00;66.10;;;;;;5117234;27;20140;-70
2022/11/19 12:38:47;;;;;;;14.80;4.00;;;5.00;66.10;;;;;;5090482;28;20053;-70
2022/11/19 12:41:32;;;;;;;6.63;3.10;;;5.10;65.10;;;;;;5089321;28;20548;-70
2022/11/19 12:44:01;;;;;;;6.90;2.95;;;5.20;65.80;;;;;;5091484;28;20742;-70
2022/11/19 12:46:41;;;;;;;6.95;3.03;;;5.30;65.00;;;;;;5089833;28;20052;-70
2022/11/19 12:49:55;;;;;;;30.42;5.20;;;5.30;64.60;;;;;;5090032;28;20071;-70
2022/11/19 12:52:52;;;;;;;63.92;7.65;;;5.30;65.10;;;;;;4991907;28;20046;-70
2022/11/19 12:55:26;;;;;;;171.03;20.13;;;5.50;65.40;;;;;;5087095;28;20152;-70
2022/11/19 12:58:04;;;;;;;91.85;10.88;;;5.50;65.10;;;;;;5072699;28;20264;-70
2022/11/19 13:00:34;;;;;;;8.95;3.10;;;5.60;65.50;;;;;;5088985;28;20152;-70
2022/11/19 13:03:11;;;;;;;15.65;4.22;;;5.70;65.50;;;;;;5089814;28;20059;-70
2022/11/19 13:05:45;;;;;;;6.65;2.70;;;5.70;65.10;;;;;;5098354;28;20053;-70
2022/11/19 13:08:21;;;;;;;6.30;2.87;;;5.80;65.00;;;;;;5108087;28;20056;-70
2022/11/19 13:10:51;;;;;;;50.35;6.30;;;5.90;64.30;;;;;;5077260;28;21221;-70
2022/11/19 13:13:25;;;;;;;22.58;4.70;;;5.90;64.80;;;;;;5092066;28;20059;-70
2022/11/19 13:15:58;;;;;;;68.72;9.05;;;6.00;64.60;;;;;;5089727;28;20048;-70
2022/11/19 13:18:29;;;;;;;76.85;11.43;;;6.10;64.20;;;;;;5087354;28;20107;-70
2022/11/19 13:21:00;;;;;;;70.73;10.50;;;6.10;63.40;;;;;;5088791;28;20060;-70
2022/11/19 13:23:33;;;;;;;121.50;13.40;;;6.10;63.30;;;;;;5088503;28;20263;-70
2022/11/19 13:26:04;;;;;;;16.77;3.75;;;6.10;63.00;;;;;;5087269;28;20062;-70
2022/11/19 13:28:37;;;;;;;6.30;2.50;;;6.10;63.10;;;;;;5087499;28;20512;-70
2022/11/19 13:31:13;;;;;;;6.53;2.67;;;6.20;62.10;;;;;;5087770;28;20151;-70
2022/11/19 13:33:48;;;;;;;6.93;2.50;;;6.20;62.80;;;;;;5098147;28;20131;-70